CheckWX is a tool to help pilots better visualize weather data.  It is not intended as a substitute for an official pre-flight weather briefing.

01:46:45 UTC

KSFF TAF
Felts Field Airport
Spokane, Washington, USA
KSFF 192329Z 2000/2024 20007KT P6SM SKC FM200200 VRB04KT P6SM FEW250 FM201200 VRB02KT P6SM SCT250

Aug-20@
00:00 UTC

Aug-20 @ 00:00 UTC

Aug-20@
02:00 UTC

Aug-20 @ 02:00 UTC

KSFF 192329Z 2000/2024 20007KT P6SM SKC
Wind
  • 200° at 7 KTS
Cloud Levels
  • Clear skies

Aug-20@
02:00 UTC

Aug-20 @ 02:00 UTC

Aug-20@
12:00 UTC

Aug-20 @ 12:00 UTC

FM200200 VRB04KT P6SM FEW250

From

From Standard forecast or significant change

Wind
  • Variable at 4 KTS
Cloud Levels
  • Few at 25,000' AGL

Aug-20@
12:00 UTC

Aug-20 @ 12:00 UTC

Aug-21@
00:00 UTC

Aug-21 @ 00:00 UTC

FM201200 VRB02KT P6SM SCT250

From

From Standard forecast or significant change

Wind
  • Variable at 2 KTS
Cloud Levels
  • Scattered at 25,000' AGL